Time;durP1;ratioP1;P1;durP2;ratioP2;P2;SDS_P1;SDS_P2;PMS_P1;PMS_P2;Temp;Humidity;BMP_temperature;BMP_pressure;BME280_temperature;BME280_humidity;BME280_pressure;Samples;Min_cycle;Max_cycle;Signal;HPM_P1;HPM_P2
2022/09/10 00:00:29;;;;;;;1.87;0.40;;;;;;;16.73;70.91;100301.78;5033647;28;20232;-81
2022/09/10 00:02:55;;;;;;;1.57;0.50;;;;;;;16.72;71.01;100296.53;5038797;28;20219;-80
2022/09/10 00:05:23;;;;;;;1.53;0.43;;;;;;;16.72;71.07;100293.84;5036028;28;20205;-81
2022/09/10 00:07:50;;;;;;;1.43;0.40;;;;;;;16.72;71.24;100294.69;5035694;28;20209;-81
2022/09/10 00:10:17;;;;;;;1.87;0.50;;;;;;;16.71;71.31;100294.84;5034971;28;20718;-81
2022/09/10 00:12:45;;;;;;;0.50;0.50;;;;;;;16.71;71.27;100301.06;5035904;28;20213;-80
2022/09/10 00:15:12;;;;;;;0.77;0.60;;;;;;;16.70;71.54;100295.81;5035477;28;20291;-79
2022/09/10 00:17:39;;;;;;;0.83;0.50;;;;;;;16.69;71.56;100303.03;5034571;28;20244;-80
2022/09/10 00:20:06;;;;;;;1.80;0.50;;;;;;;16.67;71.61;100300.50;5035693;28;20239;-80
2022/09/10 00:22:34;;;;;;;0.93;0.57;;;;;;;16.66;71.56;100303.31;5035259;28;20215;-80
2022/09/10 00:25:01;;;;;;;0.77;0.40;;;;;;;16.65;71.82;100304.34;5034244;28;20223;-80
2022/09/10 00:27:27;;;;;;;1.17;0.47;;;;;;;16.63;71.80;100301.81;5036994;28;20214;-80
2022/09/10 00:29:54;;;;;;;1.73;0.63;;;;;;;16.60;71.79;100299.38;5038337;28;20263;-80
2022/09/10 00:32:21;;;;;;;0.80;0.40;;;;;;;16.59;72.01;100299.50;5033947;28;20210;-80
2022/09/10 00:34:48;;;;;;;1.20;0.50;;;;;;;16.57;72.17;100298.78;5035613;28;20581;-80
2022/09/10 00:37:15;;;;;;;2.37;0.50;;;;;;;16.55;72.14;100296.25;5034887;28;20223;-80
2022/09/10 00:39:43;;;;;;;3.03;0.50;;;;;;;16.54;72.39;100299.06;5034874;28;20237;-81
2022/09/10 00:42:10;;;;;;;0.90;0.43;;;;;;;16.53;72.39;100290.16;5035117;28;20204;-80
2022/09/10 00:44:59;;;;;;;1.03;0.40;;;;;;;16.51;72.44;100281.41;5036907;28;20244;-80
2022/09/10 00:47:30;;;;;;;1.47;0.60;;;;;;;16.49;72.84;100294.13;5028074;28;20207;-79
2022/09/10 00:50:00;;;;;;;2.20;0.40;;;;;;;16.47;72.74;100289.91;5034715;28;20260;-80
2022/09/10 00:52:28;;;;;;;0.97;0.40;;;;;;;16.44;73.04;100288.34;5034340;28;20235;-80
2022/09/10 00:54:56;;;;;;;1.60;0.60;;;;;;;16.42;73.16;100286.78;5034323;28;20204;-80
2022/09/10 00:57:23;;;;;;;2.00;0.50;;;;;;;16.40;73.33;100294.16;5035085;28;20224;-80
2022/09/10 01:00:02;;;;;;;1.47;0.50;;;;;;;16.37;73.58;100303.34;5034745;28;20235;-83
2022/09/10 01:02:28;;;;;;;1.23;0.60;;;;;;;16.33;73.81;100301.94;5030799;28;20209;-84
2022/09/10 01:04:57;;;;;;;2.57;0.60;;;;;;;16.32;73.95;100305.59;5035888;28;20299;-84
2022/09/10 01:07:24;;;;;;;0.43;0.40;;;;;;;16.31;74.07;100293.16;5036682;28;20231;-83
2022/09/10 01:09:51;;;;;;;1.17;0.53;;;;;;;16.30;74.32;100296.88;5034035;28;20735;-83
2022/09/10 01:12:36;;;;;;;1.17;0.50;;;;;;;16.29;74.36;100296.00;5034560;28;20241;-84
2022/09/10 01:15:19;;;;;;;2.43;0.60;;;;;;;16.28;74.68;100294.31;5035659;28;20195;-84
2022/09/10 01:18:02;;;;;;;0.63;0.50;;;;;;;16.27;74.64;100298.00;5032904;28;20876;-84
2022/09/10 01:20:54;;;;;;;1.63;0.60;;;;;;;16.26;74.71;100296.28;5032075;28;20232;-84
2022/09/10 01:23:59;;;;;;;2.20;0.83;;;;;;;16.24;74.76;100300.09;5018264;28;20300;-83
2022/09/10 01:26:41;;;;;;;1.90;0.60;;;;;;;16.23;74.84;100299.25;5036024;28;20222;-83
2022/09/10 01:29:12;;;;;;;1.40;0.53;;;;;;;16.20;74.96;100299.53;5033332;28;20212;-83
2022/09/10 01:31:48;;;;;;;1.60;0.50;;;;;;;16.20;75.18;100304.91;5034811;28;20306;-82
2022/09/10 01:34:21;;;;;;;0.87;0.60;;;;;;;16.19;74.99;100313.09;5037152;28;20198;-82
2022/09/10 01:36:53;;;;;;;1.00;0.70;;;;;;;16.18;75.26;100311.41;5036714;28;20204;-82
2022/09/10 01:39:25;;;;;;;2.73;0.70;;;;;;;16.16;75.44;100308.84;5034289;28;20200;-81
2022/09/10 01:41:57;;;;;;;1.13;0.80;;;;;;;16.16;75.72;100318.75;5034262;28;20284;-79
2022/09/10 01:44:52;;;;;;;1.90;0.70;;;;;;;16.15;75.58;100317.06;5039099;28;20207;-80
2022/09/10 01:47:32;;;;;;;1.07;0.60;;;;;;;16.14;75.71;100315.34;5031563;28;20204;-80
2022/09/10 01:50:12;;;;;;;1.57;0.83;;;;;;;16.14;75.52;100334.16;5040386;28;20263;-79
2022/09/10 01:52:50;;;;;;;0.90;0.60;;;;;;;16.13;75.68;100327.09;5034175;28;20576;-79
2022/09/10 01:55:31;;;;;;;1.10;0.80;;;;;;;16.13;75.63;100325.25;5033467;28;20230;-79
2022/09/10 01:58:04;;;;;;;3.13;1.00;;;;;;;16.12;76.01;100328.94;5027457;28;20214;-80
2022/09/10 02:00:34;;;;;;;1.17;0.60;;;;;;;16.11;76.01;100332.63;5033476;28;20223;-79
2022/09/10 02:03:05;;;;;;;1.07;0.70;;;;;;;16.11;76.20;100334.47;5030567;28;20208;-80
2022/09/10 02:05:36;;;;;;;3.30;0.70;;;;;;;16.10;76.16;100336.31;5033364;28;20231;-79
2022/09/10 02:08:08;;;;;;;1.67;0.70;;;;;;;16.09;76.22;100339.13;5034080;28;21020;-80
2022/09/10 02:10:46;;;;;;;0.57;0.57;;;;;;;16.07;76.33;100333.03;5033392;28;20231;-80
2022/09/10 02:13:13;;;;;;;2.20;0.60;;;;;;;16.05;76.42;100337.72;5037002;28;20199;-79
2022/09/10 02:15:41;;;;;;;1.63;0.70;;;;;;;16.04;76.51;100341.38;5038004;28;20208;-80
2022/09/10 02:18:08;;;;;;;1.40;0.60;;;;;;;16.02;76.52;100335.28;5033585;28;20227;-80
2022/09/10 02:20:35;;;;;;;2.10;0.70;;;;;;;16.00;76.89;100335.44;5030680;28;20294;-80
2022/09/10 02:23:02;;;;;;;1.93;0.90;;;;;;;15.98;76.94;100334.72;5034346;28;20211;-81
2022/09/10 02:25:33;;;;;;;1.67;0.57;;;;;;;15.96;77.13;100334.00;5034355;28;20342;-80
2022/09/10 02:27:59;;;;;;;1.73;0.70;;;;;;;15.94;77.25;100331.47;5032813;28;20194;-80
2022/09/10 02:30:26;;;;;;;1.60;0.70;;;;;;;15.95;77.34;100327.78;5038597;28;20232;-80
2022/09/10 02:32:54;;;;;;;0.87;0.70;;;;;;;15.94;77.58;100325.25;5032531;28;20210;-80
2022/09/10 02:35:21;;;;;;;5.80;1.20;;;;;;;15.94;77.51;100334.13;5025167;28;20202;-80
2022/09/10 02:37:49;;;;;;;0.87;0.70;;;;;;;15.92;77.49;100328.09;5034863;28;20261;-80
2022/09/10 02:40:18;;;;;;;1.50;0.60;;;;;;;15.89;77.58;100323.00;5032371;28;20314;-80
2022/09/10 02:42:45;;;;;;;2.00;0.67;;;;;;;15.88;78.20;100329.34;5035934;28;20239;-80
2022/09/10 02:45:12;;;;;;;2.00;0.60;;;;;;;15.87;78.06;100335.69;5031003;28;20200;-80
2022/09/10 02:47:38;;;;;;;1.67;0.60;;;;;;;15.87;77.82;100333.00;5032196;28;20203;-80
2022/09/10 02:50:10;;;;;;;2.43;0.83;;;;;;;15.86;78.18;100343.91;5034559;28;20589;-80
2022/09/10 02:52:37;;;;;;;1.27;0.70;;;;;;;15.84;77.83;100343.19;5031463;28;20665;-82
2022/09/10 02:55:04;;;;;;;1.57;0.63;;;;;;;15.83;78.16;100342.34;5031572;28;20203;-81
2022/09/10 02:57:30;;;;;;;1.37;0.77;;;;;;;15.82;78.24;100335.25;5025400;28;20659;-83
2022/09/10 02:59:57;;;;;;;0.83;0.53;;;;;;;15.80;78.44;100334.53;5031767;28;20234;-82
2022/09/10 03:02:24;;;;;;;0.77;0.73;;;;;;;15.79;78.34;100326.63;5030391;28;20364;-82
2022/09/10 03:04:50;;;;;;;2.10;0.60;;;;;;;15.78;78.52;100328.47;5030581;28;20208;-82
2022/09/10 03:07:19;;;;;;;2.07;0.70;;;;;;;15.76;78.61;100325.09;5032515;28;20203;-82
2022/09/10 03:09:45;;;;;;;1.70;0.77;;;;;;;15.75;78.72;100323.41;5030366;28;20232;-82
2022/09/10 03:12:13;;;;;;;1.97;0.50;;;;;;;15.73;78.91;100328.06;5030796;28;20202;-82
2022/09/10 03:14:40;;;;;;;0.90;0.67;;;;;;;15.71;79.02;100326.47;5030396;28;20208;-83
2022/09/10 03:17:06;;;;;;;1.60;1.20;;;;;;;15.69;79.06;100326.63;5030332;28;20202;-83
2022/09/10 03:19:33;;;;;;;1.60;0.70;;;;;;;15.66;79.20;100326.03;5031450;28;20235;-82
2022/09/10 03:21:59;;;;;;;1.63;0.80;;;;;;;15.63;79.41;100333.38;5031144;28;20203;-82
2022/09/10 03:24:27;;;;;;;2.50;0.60;;;;;;;15.61;79.34;100335.34;5029673;28;20218;-82
2022/09/10 03:26:54;;;;;;;1.50;0.60;;;;;;;15.59;79.43;100344.50;5030876;28;20377;-83
2022/09/10 03:29:21;;;;;;;2.10;0.60;;;;;;;15.57;79.73;100349.19;5037272;28;20221;-82
2022/09/10 03:31:50;;;;;;;2.60;0.73;;;;;;;15.55;79.73;100335.91;5031118;28;20885;-82
2022/09/10 03:34:17;;;;;;;1.27;0.60;;;;;;;15.52;79.72;100343.34;5029657;28;20221;-82
2022/09/10 03:36:46;;;;;;;0.97;0.60;;;;;;;15.50;80.07;100345.31;5034071;28;20209;-82
2022/09/10 03:39:13;;;;;;;1.80;1.00;;;;;;;15.50;80.08;100348.00;5029983;28;20292;-82
2022/09/10 03:41:40;;;;;;;1.27;0.80;;;;;;;15.49;80.40;100344.47;5030485;28;20271;-82
2022/09/10 03:44:07;;;;;;;0.97;0.80;;;;;;;15.48;80.40;100344.59;5029915;28;20211;-82
2022/09/10 03:46:34;;;;;;;3.00;0.90;;;;;;;15.48;80.67;100344.59;5024604;28;20209;-82
2022/09/10 03:49:01;;;;;;;1.00;0.80;;;;;;;15.47;80.84;100345.59;5030457;28;20579;-82
2022/09/10 03:51:28;;;;;;;1.73;0.63;;;;;;;15.48;81.00;100352.66;5029299;28;20252;-82
2022/09/10 03:53:54;;;;;;;1.43;0.97;;;;;;;15.49;80.85;100343.63;5029041;28;20207;-82
2022/09/10 03:56:21;;;;;;;1.37;0.70;;;;;;;15.48;80.94;100345.44;5030202;28;20611;-82
2022/09/10 03:58:49;;;;;;;1.30;0.80;;;;;;;15.50;81.32;100339.94;5029555;28;20229;-82
2022/09/10 04:01:16;;;;;;;1.33;0.70;;;;;;;15.50;81.39;100342.63;5030743;28;20230;-82
2022/09/10 04:03:43;;;;;;;1.40;0.70;;;;;;;15.51;81.35;100347.88;5029496;28;20515;-83
2022/09/10 04:06:10;;;;;;;2.17;1.00;;;;;;;15.50;81.31;100338.13;5030221;28;20202;-82
2022/09/10 04:08:36;;;;;;;3.50;0.80;;;;;;;15.51;81.24;100345.19;5028585;28;20211;-83
2022/09/10 04:11:03;;;;;;;1.43;0.90;;;;;;;15.51;81.36;100341.66;5027782;28;20237;-82
2022/09/10 04:13:31;;;;;;;3.67;0.83;;;;;;;15.51;80.92;100347.03;5032440;28;20229;-83
2022/09/10 04:16:00;;;;;;;1.43;0.90;;;;;;;15.51;81.20;100337.13;5030603;28;20245;-82
2022/09/10 04:18:27;;;;;;;1.63;1.03;;;;;;;15.50;81.64;100337.25;5027818;28;20230;-79
2022/09/10 04:20:53;;;;;;;1.17;1.07;;;;;;;15.48;81.43;100340.09;5030017;28;20237;-80
2022/09/10 04:23:20;;;;;;;1.80;1.20;;;;;;;15.47;81.49;100329.47;5028495;28;20211;-80
2022/09/10 04:25:48;;;;;;;2.23;1.00;;;;;;;15.49;81.65;100340.94;5033654;28;20218;-79
2022/09/10 04:28:14;;;;;;;2.43;0.87;;;;;;;15.48;81.50;100339.22;5030223;28;20306;-79
2022/09/10 04:30:41;;;;;;;1.13;0.80;;;;;;;15.46;81.84;100342.03;5030471;28;20298;-81
2022/09/10 04:33:10;;;;;;;2.57;0.80;;;;;;;15.46;81.85;100334.00;5027400;28;20206;-80
2022/09/10 04:35:38;;;;;;;1.70;0.87;;;;;;;15.46;81.84;100341.19;5031676;28;20782;-79
2022/09/10 04:38:05;;;;;;;2.07;0.83;;;;;;;15.46;81.77;100346.56;5030087;28;20704;-81
2022/09/10 04:40:32;;;;;;;2.77;0.80;;;;;;;15.45;81.86;100347.56;5027752;28;20233;-79
2022/09/10 04:42:59;;;;;;;2.50;0.93;;;;;;;15.44;82.22;100340.47;5032112;28;20207;-81
2022/09/10 04:45:26;;;;;;;1.57;0.90;;;;;;;15.45;82.05;100350.22;5029644;28;20302;-81
2022/09/10 04:47:53;;;;;;;1.30;1.20;;;;;;;15.43;82.27;100350.38;5033237;28;20228;-80
2022/09/10 04:50:21;;;;;;;3.70;1.20;;;;;;;15.45;82.39;100344.88;5034811;28;20284;-80
2022/09/10 04:52:47;;;;;;;3.90;0.97;;;;;;;15.44;82.40;100352.06;5034084;28;20216;-80
2022/09/10 04:55:14;;;;;;;2.63;1.00;;;;;;;15.45;82.17;100350.22;5033573;28;20331;-81
2022/09/10 04:57:41;;;;;;;2.67;1.10;;;;;;;15.45;82.18;100350.22;5033882;28;20206;-80
2022/09/10 05:00:08;;;;;;;2.57;0.90;;;;;;;15.45;82.24;100355.59;5034054;28;20321;-80
2022/09/10 05:02:35;;;;;;;0.90;0.90;;;;;;;15.44;82.38;100353.91;5034346;28;20207;-80
2022/09/10 05:05:01;;;;;;;3.67;1.40;;;;;;;15.44;82.45;100359.25;5032893;28;20210;-80
2022/09/10 05:07:30;;;;;;;2.00;0.97;;;;;;;15.44;82.56;100361.94;5033547;28;20202;-81
2022/09/10 05:09:56;;;;;;;1.73;1.03;;;;;;;15.43;82.91;100368.31;5035785;28;20222;-80
2022/09/10 05:12:23;;;;;;;1.33;0.77;;;;;;;15.43;82.88;100368.31;5033982;28;20207;-79
2022/09/10 05:14:49;;;;;;;1.83;0.97;;;;;;;15.42;83.24;100362.09;5033384;28;20661;-79
2022/09/10 05:17:15;;;;;;;2.13;1.00;;;;;;;15.43;83.27;100361.09;5033926;28;20206;-80
2022/09/10 05:19:42;;;;;;;2.00;1.00;;;;;;;15.44;83.70;100365.47;5031653;28;20226;-79
2022/09/10 05:22:09;;;;;;;2.60;0.80;;;;;;;15.47;83.86;100369.75;5032983;28;20217;-80
2022/09/10 05:24:36;;;;;;;3.27;0.90;;;;;;;15.46;83.74;100366.19;5026426;28;20211;-80
2022/09/10 05:27:03;;;;;;;2.30;1.40;;;;;;;15.48;83.99;100364.25;5034725;28;20214;-80
2022/09/10 05:29:29;;;;;;;3.30;1.07;;;;;;;15.49;84.14;100368.63;5030651;28;20223;-81
2022/09/10 05:31:56;;;;;;;1.60;1.00;;;;;;;15.50;84.08;100373.00;5032185;28;20206;-80
2022/09/10 05:34:23;;;;;;;4.97;1.37;;;;;;;15.51;84.03;100366.66;5036768;28;20689;-80
2022/09/10 05:36:50;;;;;;;2.60;0.93;;;;;;;15.55;84.24;100367.25;5036887;28;20237;-80
2022/09/10 05:39:17;;;;;;;2.70;0.87;;;;;;;15.57;83.98;100368.84;5036261;28;20487;-80
2022/09/10 05:41:44;;;;;;;1.60;0.90;;;;;;;15.60;84.01;100370.38;5036988;28;20210;-80
2022/09/10 05:44:16;;;;;;;1.90;1.10;;;;;;;15.60;83.74;100365.84;5034364;28;20202;-81
2022/09/10 05:46:43;;;;;;;4.07;1.07;;;;;;;15.63;83.66;100365.59;5034869;28;20222;-81
2022/09/10 05:49:11;;;;;;;3.27;1.00;;;;;;;15.67;83.80;100368.84;5033047;28;20198;-78
2022/09/10 05:51:38;;;;;;;2.03;0.90;;;;;;;15.68;83.39;100367.88;5033873;28;20301;-81
2022/09/10 05:54:05;;;;;;;1.23;1.03;;;;;;;15.71;83.62;100367.59;5030411;28;20202;-80
2022/09/10 05:56:31;;;;;;;2.17;0.83;;;;;;;15.74;83.50;100366.50;5033597;28;20211;-80
2022/09/10 05:58:59;;;;;;;2.13;1.00;;;;;;;15.74;83.21;100367.34;5037770;28;20239;-80
2022/09/10 06:01:27;;;;;;;2.67;1.00;;;;;;;15.78;83.21;100359.84;5032728;28;20225;-81
2022/09/10 06:03:53;;;;;;;3.67;1.00;;;;;;;15.81;82.80;100360.41;5036376;28;20211;-81
2022/09/10 06:06:20;;;;;;;2.27;1.07;;;;;;;15.85;82.73;100366.38;5034144;28;20199;-81
2022/09/10 06:08:50;;;;;;;1.63;0.97;;;;;;;15.91;82.87;100363.13;5032662;28;20238;-81
2022/09/10 06:11:17;;;;;;;2.50;0.90;;;;;;;16.01;82.95;100365.81;5032741;28;20586;-81
2022/09/10 06:13:44;;;;;;;3.00;1.30;;;;;;;16.08;82.53;100361.59;5033146;28;20264;-80
2022/09/10 06:16:12;;;;;;;3.00;0.80;;;;;;;16.14;82.03;100366.41;5034174;28;20213;-80
2022/09/10 06:18:38;;;;;;;1.63;0.77;;;;;;;16.14;81.58;100364.56;5032777;28;20227;-80
2022/09/10 06:21:11;;;;;;;4.50;1.20;;;;;;;16.18;81.40;100365.16;5034926;28;20239;-84
2022/09/10 06:23:38;;;;;;;3.90;1.10;;;;;;;16.19;80.97;100361.47;5033201;28;20238;-80
2022/09/10 06:26:07;;;;;;;1.87;1.10;;;;;;;16.20;80.72;100363.16;5032778;28;20215;-80
2022/09/10 06:28:34;;;;;;;3.40;1.10;;;;;;;16.21;80.51;100367.56;5033082;28;20268;-80
2022/09/10 06:31:03;;;;;;;1.80;1.00;;;;;;;16.24;80.52;100359.22;5032100;28;20263;-81
2022/09/10 06:33:31;;;;;;;2.47;1.13;;;;;;;16.29;80.50;100370.41;5034903;28;20210;-80
2022/09/10 06:35:59;;;;;;;4.40;1.30;;;;;;;16.35;80.48;100367.13;5029928;28;20225;-80
2022/09/10 06:38:29;;;;;;;1.53;0.90;;;;;;;16.41;80.45;100365.72;5033098;28;20204;-81
2022/09/10 06:40:59;;;;;;;1.70;1.00;;;;;;;16.46;80.29;100363.47;5031867;28;20236;-79
2022/09/10 06:43:26;;;;;;;1.73;0.80;;;;;;;16.50;79.93;100368.41;5033210;28;20208;-80
2022/09/10 06:45:54;;;;;;;1.07;0.90;;;;;;;16.55;79.82;100373.38;5032361;28;20208;-80
2022/09/10 06:48:20;;;;;;;1.43;0.90;;;;;;;16.62;79.55;100369.13;5033729;28;20203;-81
2022/09/10 06:50:53;;;;;;;3.03;1.13;;;;;;;16.66;79.46;100371.41;5033081;28;20226;-80
2022/09/10 06:53:23;;;;;;;2.30;0.80;;;;;;;16.71;79.40;100370.13;5033223;28;20205;-81
2022/09/10 06:55:51;;;;;;;2.00;0.80;;;;;;;16.77;78.83;100383.00;5032840;28;20205;-81
2022/09/10 06:58:19;;;;;;;5.13;1.07;;;;;;;16.79;78.46;100383.72;5031730;28;20202;-81
2022/09/10 07:00:46;;;;;;;1.03;0.73;;;;;;;16.83;78.27;100383.28;5028433;28;20233;-80
2022/09/10 07:03:14;;;;;;;0.90;0.80;;;;;;;16.88;78.12;100390.91;5032690;28;20290;-80
2022/09/10 07:05:40;;;;;;;3.63;1.30;;;;;;;16.94;77.79;100398.41;5032101;28;20212;-80
2022/09/10 07:08:15;;;;;;;2.17;1.10;;;;;;;17.00;77.56;100396.00;5042262;28;20212;-82
2022/09/10 07:10:44;;;;;;;2.87;1.00;;;;;;;17.06;77.30;100391.03;5043900;28;20231;-82
2022/09/10 07:13:11;;;;;;;3.13;0.70;;;;;;;17.12;76.92;100394.00;5043050;28;20210;-81
2022/09/10 07:15:44;;;;;;;4.53;1.10;;;;;;;17.21;76.66;100398.50;5046105;28;20202;-83
2022/09/10 07:18:13;;;;;;;2.23;0.90;;;;;;;17.30;76.00;100397.63;5044592;28;20203;-82
2022/09/10 07:20:39;;;;;;;0.70;0.70;;;;;;;17.40;75.62;100402.13;5046505;28;20323;-82
2022/09/10 07:23:06;;;;;;;2.70;0.83;;;;;;;17.49;75.43;100395.88;5045204;28;20376;-80
2022/09/10 07:25:33;;;;;;;4.77;1.10;;;;;;;17.62;75.41;100397.22;5041793;28;20594;-80
2022/09/10 07:28:00;;;;;;;3.77;0.97;;;;;;;17.77;74.78;100394.91;5038161;28;20204;-80
2022/09/10 07:30:28;;;;;;;1.63;0.90;;;;;;;17.90;73.89;100400.81;5034818;28;20217;-80
2022/09/10 07:32:55;;;;;;;1.50;0.60;;;;;;;18.03;73.16;100405.84;5036848;28;20210;-80
2022/09/10 07:35:21;;;;;;;1.73;0.67;;;;;;;18.15;73.03;100401.94;5032870;28;20650;-80
2022/09/10 07:37:48;;;;;;;2.33;1.00;;;;;;;18.29;72.56;100414.03;5038137;28;20217;-80
2022/09/10 07:40:14;;;;;;;3.33;1.20;;;;;;;18.41;71.67;100409.28;5037331;28;20235;-81
2022/09/10 07:42:43;;;;;;;1.37;0.80;;;;;;;18.50;70.56;100419.97;5039287;28;20822;-83
2022/09/10 07:45:14;;;;;;;1.10;1.00;;;;;;;18.52;69.95;100409.91;5034968;28;20290;-83
2022/09/10 07:47:41;;;;;;;2.13;0.90;;;;;;;18.57;69.29;100418.38;5036881;28;20208;-83
2022/09/10 07:50:08;;;;;;;2.20;0.90;;;;;;;18.60;68.69;100420.81;5040272;28;20218;-83
2022/09/10 07:52:35;;;;;;;2.57;0.90;;;;;;;18.63;68.07;100423.16;5034254;28;20210;-83
2022/09/10 07:55:02;;;;;;;2.33;0.70;;;;;;;18.65;67.54;100434.66;5033150;28;20212;-83
2022/09/10 07:57:30;;;;;;;2.40;0.77;;;;;;;18.66;67.30;100427.41;5034525;28;20211;-83
2022/09/10 07:59:59;;;;;;;2.10;0.73;;;;;;;18.66;66.97;100430.97;5034384;28;20235;-83
2022/09/10 08:02:26;;;;;;;1.90;0.70;;;;;;;18.72;67.23;100433.03;5035839;28;20205;-83
2022/09/10 08:04:52;;;;;;;1.67;0.60;;;;;;;18.81;67.04;100441.22;5033688;28;20209;-82
2022/09/10 08:07:19;;;;;;;2.43;0.70;;;;;;;18.87;66.98;100444.13;5034709;28;20213;-84
2022/09/10 08:09:45;;;;;;;2.97;0.80;;;;;;;18.90;66.12;100438.44;5034002;28;20675;-83
2022/09/10 08:12:12;;;;;;;3.20;0.73;;;;;;;18.89;65.47;100449.38;5033985;28;20236;-82
2022/09/10 08:14:38;;;;;;;2.40;0.93;;;;;;;18.82;65.56;100441.03;5034248;28;20208;-83
2022/09/10 08:17:06;;;;;;;2.03;0.70;;;;;;;18.82;65.82;100448.28;5032507;28;20205;-82
2022/09/10 08:19:33;;;;;;;3.57;0.80;;;;;;;18.81;65.94;100449.31;5031974;28;20599;-83
2022/09/10 08:22:00;;;;;;;3.00;0.70;;;;;;;18.82;66.03;100443.75;5035358;28;20273;-80
2022/09/10 08:24:27;;;;;;;4.60;0.90;;;;;;;18.84;66.04;100454.38;5031552;28;20221;-80
2022/09/10 08:26:53;;;;;;;1.53;0.60;;;;;;;18.87;66.26;100454.94;5037755;28;20231;-80
2022/09/10 08:29:20;;;;;;;2.43;0.70;;;;;;;18.89;65.82;100455.63;5034617;28;20204;-80
2022/09/10 08:31:46;;;;;;;3.00;1.00;;;;;;;18.90;65.59;100459.16;5029603;28;20680;-81
2022/09/10 08:34:14;;;;;;;1.73;0.80;;;;;;;18.88;65.68;100453.09;5032218;28;20209;-80
2022/09/10 08:36:41;;;;;;;1.50;0.63;;;;;;;18.87;65.70;100456.78;5035504;28;20215;-80
2022/09/10 08:39:07;;;;;;;1.77;0.70;;;;;;;18.86;65.75;100453.22;5036760;28;20205;-81
2022/09/10 08:41:45;;;;;;;1.93;0.60;;;;;;;18.86;65.53;100453.22;5035106;28;20239;-80
2022/09/10 08:44:21;;;;;;;4.30;0.83;;;;;;;18.88;65.96;100463.88;5028994;28;20678;-80
2022/09/10 08:46:54;;;;;;;2.23;0.70;;;;;;;18.93;65.72;100466.97;5035300;28;20695;-81
2022/09/10 08:49:32;;;;;;;3.93;0.93;;;;;;;18.97;65.79;100474.59;5034801;28;20223;-81
2022/09/10 08:52:04;;;;;;;1.40;0.60;;;;;;;18.98;65.23;100470.06;5034718;28;20205;-81
2022/09/10 08:54:39;;;;;;;2.17;0.60;;;;;;;19.01;65.20;100467.03;5034530;28;20197;-80
2022/09/10 08:57:14;;;;;;;1.47;0.60;;;;;;;19.02;64.73;100463.31;5035248;28;20204;-81
2022/09/10 08:59:45;;;;;;;2.47;0.73;;;;;;;19.04;64.92;100462.16;5028695;28;20267;-81
2022/09/10 09:02:19;;;;;;;1.30;0.50;;;;;;;19.06;64.99;100460.16;5037413;28;20212;-81
2022/09/10 09:04:52;;;;;;;0.80;0.60;;;;;;;19.06;65.37;100462.00;5035297;28;20205;-80
2022/09/10 09:07:20;;;;;;;1.40;0.50;;;;;;;19.08;64.95;100466.25;5034898;28;20232;-80
2022/09/10 09:09:50;;;;;;;2.10;0.50;;;;;;;19.08;64.90;100468.09;5033427;28;20221;-81
2022/09/10 09:12:24;;;;;;;0.80;0.50;;;;;;;19.04;64.95;100464.84;5037104;28;20246;-80
2022/09/10 09:15:02;;;;;;;2.00;0.60;;;;;;;19.07;65.23;100471.81;5040172;28;20725;-81
2022/09/10 09:17:45;;;;;;;1.50;0.67;;;;;;;19.10;65.40;100466.09;5045389;28;20203;-83
2022/09/10 09:20:17;;;;;;;1.80;0.70;;;;;;;19.16;65.23;100460.09;5039972;28;20332;-84
2022/09/10 09:22:51;;;;;;;1.37;0.70;;;;;;;19.20;65.08;100466.00;5044782;28;20223;-83
2022/09/10 09:25:30;;;;;;;2.17;0.50;;;;;;;19.26;65.26;100470.78;5042035;28;20220;-83
2022/09/10 09:27:57;;;;;;;1.00;0.50;;;;;;;19.29;64.80;100465.91;5041577;28;20218;-83
2022/09/10 09:30:27;;;;;;;1.63;0.80;;;;;;;19.37;64.86;100465.94;5028915;28;20224;-79
2022/09/10 09:32:58;;;;;;;2.53;0.60;;;;;;;19.42;64.78;100465.47;5039501;28;20235;-80
2022/09/10 09:35:31;;;;;;;3.33;0.53;;;;;;;19.46;64.26;100455.22;5037968;28;20217;-83
2022/09/10 09:38:15;;;;;;;2.30;1.07;;;;;;;19.48;64.14;100459.47;5042107;28;20291;-84
2022/09/10 09:40:46;;;;;;;3.33;0.90;;;;;;;19.51;63.94;100453.78;5041047;28;20240;-83
2022/09/10 09:43:22;;;;;;;1.53;0.60;;;;;;;19.60;63.73;100451.97;5039645;28;20210;-85
2022/09/10 09:45:52;;;;;;;1.50;0.60;;;;;;;19.72;63.78;100453.38;5039527;28;20212;-83
2022/09/10 09:48:20;;;;;;;0.73;0.50;;;;;;;19.84;63.52;100449.41;5041739;28;20212;-82
2022/09/10 09:50:52;;;;;;;2.57;0.67;;;;;;;20.00;63.18;100451.31;5038225;28;20237;-84
2022/09/10 09:53:22;;;;;;;2.10;0.60;;;;;;;20.16;62.60;100442.41;5043965;28;20206;-82
2022/09/10 09:55:52;;;;;;;2.30;0.70;;;;;;;20.31;62.42;100448.88;5044477;28;20207;-83
2022/09/10 09:58:31;;;;;;;2.00;0.63;;;;;;;20.39;61.50;100448.97;5045468;28;20670;-83
2022/09/10 10:01:18;;;;;;;2.70;0.63;;;;;;;20.41;61.59;100447.78;5043270;28;20245;-82
2022/09/10 10:03:51;;;;;;;2.00;0.60;;;;;;;20.42;60.97;100444.03;5044072;28;20203;-82
2022/09/10 10:06:22;;;;;;;3.00;0.67;;;;;;;20.42;61.07;100444.03;5042875;28;20195;-83
2022/09/10 10:09:04;;;;;;;1.33;0.50;;;;;;;20.45;60.81;100445.56;5039400;28;20212;-83
2022/09/10 10:11:44;;;;;;;0.93;0.40;;;;;;;20.49;60.52;100451.50;5041677;28;20219;-83
2022/09/10 10:14:22;;;;;;;2.03;0.43;;;;;;;20.49;60.14;100443.38;5043312;28;20199;-82
2022/09/10 10:16:51;;;;;;;1.80;0.53;;;;;;;20.53;61.02;100445.59;5050757;28;20217;-82
2022/09/10 10:19:39;;;;;;;0.77;0.40;;;;;;;20.63;61.50;100443.56;5041714;28;20199;-82
2022/09/10 10:22:25;;;;;;;1.70;0.50;;;;;;;20.67;61.43;100439.53;5038679;28;20217;-82
2022/09/10 10:24:53;;;;;;;0.83;0.30;;;;;;;20.71;60.61;100435.47;5041844;28;20217;-82
2022/09/10 10:27:26;;;;;;;0.53;0.30;;;;;;;20.73;60.12;100432.59;5042593;28;20214;-82
2022/09/10 10:29:55;;;;;;;0.50;0.43;;;;;;;20.76;60.39;100432.28;5043347;28;20405;-83
2022/09/10 10:32:30;;;;;;;1.63;0.33;;;;;;;20.78;60.38;100436.47;5039915;28;20561;-82
2022/09/10 10:35:10;;;;;;;0.33;0.33;;;;;;;20.82;60.77;100436.16;5041703;28;20218;-82
2022/09/10 10:37:51;;;;;;;1.27;0.50;;;;;;;20.79;60.36;100432.75;5040977;28;20231;-82
2022/09/10 10:40:29;;;;;;;0.90;0.40;;;;;;;20.76;60.47;100438.53;5040827;28;20238;-83
2022/09/10 10:43:09;;;;;;;0.87;0.40;;;;;;;20.73;60.42;100443.44;5044617;28;20286;-83
2022/09/10 10:45:47;;;;;;;1.07;0.37;;;;;;;20.73;60.46;100443.44;5042487;28;20200;-83
2022/09/10 10:48:31;;;;;;;0.83;0.47;;;;;;;20.68;60.02;100441.22;5043441;28;20224;-83
2022/09/10 10:51:08;;;;;;;0.90;0.63;;;;;;;20.64;60.11;100437.16;5038653;28;20242;-84
2022/09/10 10:53:52;;;;;;;1.00;0.57;;;;;;;20.68;60.89;100433.09;5043824;28;20406;-82
2022/09/10 10:56:27;;;;;;;1.53;0.60;;;;;;;20.78;60.69;100441.06;5040930;28;20202;-83
2022/09/10 10:59:09;;;;;;;0.70;0.60;;;;;;;20.89;59.68;100437.19;5034913;28;20206;-82
2022/09/10 11:01:42;;;;;;;0.98;0.47;;;;;;;20.97;58.67;100432.59;5041187;28;20234;-82
2022/09/10 11:04:23;;;;;;;0.87;0.60;;;;;;;21.03;58.02;100422.97;5046285;28;20196;-83
2022/09/10 11:06:56;;;;;;;0.97;0.60;;;;;;;21.13;57.91;100423.66;5050037;28;20211;-84
2022/09/10 11:09:27;;;;;;;0.70;0.40;;;;;;;21.25;57.10;100424.16;5041528;28;20196;-83
2022/09/10 11:11:59;;;;;;;0.88;0.55;;;;;;;21.30;57.18;100419.94;5044476;28;20212;-83
2022/09/10 11:14:34;;;;;;;2.13;0.63;;;;;;;21.35;56.47;100422.09;5042362;28;20234;-83
2022/09/10 11:17:08;;;;;;;0.82;0.60;;;;;;;21.40;56.53;100412.44;5047020;28;20216;-83
2022/09/10 11:19:39;;;;;;;2.08;0.60;;;;;;;21.43;56.72;100416.69;5045207;28;20237;-83
2022/09/10 11:22:14;;;;;;;1.08;0.60;;;;;;;21.48;56.73;100417.03;5042281;28;20745;-83
2022/09/10 11:24:46;;;;;;;2.17;0.70;;;;;;;21.46;56.45;100413.63;5035238;28;20214;-83
2022/09/10 11:27:17;;;;;;;0.65;0.65;;;;;;;21.44;56.59;100412.97;5040494;28;20209;-83
2022/09/10 11:29:51;;;;;;;1.65;0.82;;;;;;;21.45;56.92;100409.22;5042575;28;20225;-83
2022/09/10 11:32:27;;;;;;;1.08;0.63;;;;;;;21.46;57.40;100403.63;5040200;28;20224;-84
2022/09/10 11:35:01;;;;;;;1.23;0.75;;;;;;;21.51;57.22;100410.38;5040074;28;20208;-83
2022/09/10 11:37:43;;;;;;;1.42;0.88;;;;;;;21.51;56.88;100407.66;5040203;28;20208;-83